sensor_id;sensor_type;location;lat;lon;timestamp;P1;durP1;ratioP1;P2;durP2;ratioP2
2896;SDS011;1458;49.728;9.228;2023-04-28T00:02:15;1.40;;;1.40;;
2896;SDS011;1458;49.728;9.228;2023-04-28T00:04:44;1.30;;;1.30;;
2896;SDS011;1458;49.728;9.228;2023-04-28T00:07:12;1.60;;;1.60;;
2896;SDS011;1458;49.728;9.228;2023-04-28T00:09:39;1.20;;;1.20;;
2896;SDS011;1458;49.728;9.228;2023-04-28T00:12:06;1.50;;;1.50;;
2896;SDS011;1458;49.728;9.228;2023-04-28T00:14:34;1.40;;;1.40;;
2896;SDS011;1458;49.728;9.228;2023-04-28T00:17:01;1.50;;;1.50;;
2896;SDS011;1458;49.728;9.228;2023-04-28T00:19:29;1.20;;;1.20;;
2896;SDS011;1458;49.728;9.228;2023-04-28T00:21:57;1.50;;;1.50;;
2896;SDS011;1458;49.728;9.228;2023-04-28T00:24:25;1.50;;;1.50;;
2896;SDS011;1458;49.728;9.228;2023-04-28T00:26:53;1.60;;;1.60;;
2896;SDS011;1458;49.728;9.228;2023-04-28T00:29:21;1.40;;;1.40;;
2896;SDS011;1458;49.728;9.228;2023-04-28T00:31:49;1.40;;;1.40;;
2896;SDS011;1458;49.728;9.228;2023-04-28T00:34:16;1.30;;;1.30;;
2896;SDS011;1458;49.728;9.228;2023-04-28T00:36:44;1.40;;;1.40;;
2896;SDS011;1458;49.728;9.228;2023-04-28T00:39:12;1.40;;;1.40;;
2896;SDS011;1458;49.728;9.228;2023-04-28T00:41:42;1.40;;;1.40;;
2896;SDS011;1458;49.728;9.228;2023-04-28T00:44:10;1.50;;;1.50;;
2896;SDS011;1458;49.728;9.228;2023-04-28T00:46:37;1.30;;;1.30;;
2896;SDS011;1458;49.728;9.228;2023-04-28T00:49:05;1.40;;;1.40;;
2896;SDS011;1458;49.728;9.228;2023-04-28T00:51:34;1.43;;;1.43;;
2896;SDS011;1458;49.728;9.228;2023-04-28T00:54:02;1.20;;;1.20;;
2896;SDS011;1458;49.728;9.228;2023-04-28T00:56:33;1.30;;;1.30;;
2896;SDS011;1458;49.728;9.228;2023-04-28T00:59:01;1.20;;;1.20;;
2896;SDS011;1458;49.728;9.228;2023-04-28T01:01:28;1.50;;;1.50;;
2896;SDS011;1458;49.728;9.228;2023-04-28T01:03:56;1.30;;;1.30;;
2896;SDS011;1458;49.728;9.228;2023-04-28T01:06:23;1.30;;;1.30;;
2896;SDS011;1458;49.728;9.228;2023-04-28T01:08:54;1.30;;;1.30;;
2896;SDS011;1458;49.728;9.228;2023-04-28T01:11:21;1.30;;;1.30;;
2896;SDS011;1458;49.728;9.228;2023-04-28T01:14:09;1.40;;;1.40;;
2896;SDS011;1458;49.728;9.228;2023-04-28T01:16:39;1.37;;;1.37;;
2896;SDS011;1458;49.728;9.228;2023-04-28T01:19:07;1.40;;;1.40;;
2896;SDS011;1458;49.728;9.228;2023-04-28T01:21:42;1.30;;;1.30;;
2896;SDS011;1458;49.728;9.228;2023-04-28T01:24:20;1.30;;;1.30;;
2896;SDS011;1458;49.728;9.228;2023-04-28T01:26:49;1.30;;;1.30;;
2896;SDS011;1458;49.728;9.228;2023-04-28T01:29:16;1.20;;;1.20;;
2896;SDS011;1458;49.728;9.228;2023-04-28T01:31:44;1.30;;;1.30;;
2896;SDS011;1458;49.728;9.228;2023-04-28T01:34:11;1.20;;;1.20;;
2896;SDS011;1458;49.728;9.228;2023-04-28T01:36:38;1.30;;;1.30;;
2896;SDS011;1458;49.728;9.228;2023-04-28T01:39:08;1.20;;;1.20;;
2896;SDS011;1458;49.728;9.228;2023-04-28T01:41:37;1.30;;;1.30;;
2896;SDS011;1458;49.728;9.228;2023-04-28T01:44:04;1.37;;;1.37;;
2896;SDS011;1458;49.728;9.228;2023-04-28T01:46:32;1.40;;;1.40;;
2896;SDS011;1458;49.728;9.228;2023-04-28T01:48:59;1.37;;;1.37;;
2896;SDS011;1458;49.728;9.228;2023-04-28T01:51:27;1.50;;;1.50;;
2896;SDS011;1458;49.728;9.228;2023-04-28T01:53:55;1.40;;;1.40;;
2896;SDS011;1458;49.728;9.228;2023-04-28T01:56:23;1.40;;;1.40;;
2896;SDS011;1458;49.728;9.228;2023-04-28T01:58:54;1.40;;;1.40;;
2896;SDS011;1458;49.728;9.228;2023-04-28T02:01:22;1.30;;;1.30;;
2896;SDS011;1458;49.728;9.228;2023-04-28T02:03:49;1.40;;;1.40;;
2896;SDS011;1458;49.728;9.228;2023-04-28T02:06:19;1.50;;;1.50;;
2896;SDS011;1458;49.728;9.228;2023-04-28T02:08:46;1.30;;;1.30;;
2896;SDS011;1458;49.728;9.228;2023-04-28T02:11:14;1.20;;;1.20;;
2896;SDS011;1458;49.728;9.228;2023-04-28T02:13:41;1.20;;;1.20;;
2896;SDS011;1458;49.728;9.228;2023-04-28T02:16:10;1.20;;;1.20;;
2896;SDS011;1458;49.728;9.228;2023-04-28T02:18:38;1.10;;;1.10;;
2896;SDS011;1458;49.728;9.228;2023-04-28T02:21:08;1.10;;;1.10;;
2896;SDS011;1458;49.728;9.228;2023-04-28T02:23:36;1.20;;;1.20;;
2896;SDS011;1458;49.728;9.228;2023-04-28T02:26:04;1.20;;;1.20;;
2896;SDS011;1458;49.728;9.228;2023-04-28T02:28:32;1.00;;;1.00;;
2896;SDS011;1458;49.728;9.228;2023-04-28T02:31:03;0.90;;;0.90;;
2896;SDS011;1458;49.728;9.228;2023-04-28T02:33:34;0.90;;;0.90;;
2896;SDS011;1458;49.728;9.228;2023-04-28T02:36:02;0.90;;;0.90;;
2896;SDS011;1458;49.728;9.228;2023-04-28T02:38:31;0.80;;;0.80;;
2896;SDS011;1458;49.728;9.228;2023-04-28T02:40:59;0.80;;;0.80;;
2896;SDS011;1458;49.728;9.228;2023-04-28T02:43:30;0.70;;;0.70;;
2896;SDS011;1458;49.728;9.228;2023-04-28T02:45:58;0.70;;;0.70;;
2896;SDS011;1458;49.728;9.228;2023-04-28T02:48:25;0.60;;;0.60;;
2896;SDS011;1458;49.728;9.228;2023-04-28T02:50:56;0.60;;;0.60;;
2896;SDS011;1458;49.728;9.228;2023-04-28T02:53:23;0.60;;;0.60;;
2896;SDS011;1458;49.728;9.228;2023-04-28T02:55:51;0.50;;;0.50;;
2896;SDS011;1458;49.728;9.228;2023-04-28T02:58:18;0.50;;;0.50;;
2896;SDS011;1458;49.728;9.228;2023-04-28T03:00:46;0.50;;;0.50;;
2896;SDS011;1458;49.728;9.228;2023-04-28T03:03:15;0.50;;;0.50;;
2896;SDS011;1458;49.728;9.228;2023-04-28T03:05:42;0.40;;;0.40;;
2896;SDS011;1458;49.728;9.228;2023-04-28T03:08:11;0.40;;;0.40;;
2896;SDS011;1458;49.728;9.228;2023-04-28T03:10:39;0.40;;;0.40;;
2896;SDS011;1458;49.728;9.228;2023-04-28T03:13:06;0.40;;;0.40;;
2896;SDS011;1458;49.728;9.228;2023-04-28T03:15:34;0.40;;;0.40;;
2896;SDS011;1458;49.728;9.228;2023-04-28T03:18:01;0.40;;;0.40;;
2896;SDS011;1458;49.728;9.228;2023-04-28T03:20:29;0.40;;;0.40;;
2896;SDS011;1458;49.728;9.228;2023-04-28T03:22:56;0.40;;;0.40;;
2896;SDS011;1458;49.728;9.228;2023-04-28T03:25:25;0.40;;;0.40;;
2896;SDS011;1458;49.728;9.228;2023-04-28T03:27:53;0.40;;;0.40;;
2896;SDS011;1458;49.728;9.228;2023-04-28T03:30:21;0.40;;;0.40;;
2896;SDS011;1458;49.728;9.228;2023-04-28T03:32:48;0.30;;;0.30;;
2896;SDS011;1458;49.728;9.228;2023-04-28T03:35:16;0.30;;;0.30;;
2896;SDS011;1458;49.728;9.228;2023-04-28T03:37:43;0.40;;;0.40;;
2896;SDS011;1458;49.728;9.228;2023-04-28T03:40:11;0.30;;;0.30;;
2896;SDS011;1458;49.728;9.228;2023-04-28T03:43:06;0.30;;;0.30;;
2896;SDS011;1458;49.728;9.228;2023-04-28T03:45:39;0.30;;;0.30;;
2896;SDS011;1458;49.728;9.228;2023-04-28T03:48:07;0.40;;;0.40;;
2896;SDS011;1458;49.728;9.228;2023-04-28T03:50:35;0.40;;;0.40;;
2896;SDS011;1458;49.728;9.228;2023-04-28T03:53:05;0.30;;;0.30;;
2896;SDS011;1458;49.728;9.228;2023-04-28T03:55:33;0.30;;;0.30;;
2896;SDS011;1458;49.728;9.228;2023-04-28T03:58:00;0.30;;;0.30;;
2896;SDS011;1458;49.728;9.228;2023-04-28T04:00:30;0.40;;;0.40;;
2896;SDS011;1458;49.728;9.228;2023-04-28T04:02:57;0.30;;;0.30;;
2896;SDS011;1458;49.728;9.228;2023-04-28T04:05:25;0.30;;;0.30;;
2896;SDS011;1458;49.728;9.228;2023-04-28T04:07:52;0.40;;;0.40;;
2896;SDS011;1458;49.728;9.228;2023-04-28T04:10:20;0.30;;;0.30;;
2896;SDS011;1458;49.728;9.228;2023-04-28T04:12:48;0.30;;;0.30;;
2896;SDS011;1458;49.728;9.228;2023-04-28T04:15:15;0.30;;;0.30;;
2896;SDS011;1458;49.728;9.228;2023-04-28T04:17:47;0.40;;;0.40;;
2896;SDS011;1458;49.728;9.228;2023-04-28T04:20:19;0.30;;;0.30;;
2896;SDS011;1458;49.728;9.228;2023-04-28T04:22:47;0.30;;;0.30;;
2896;SDS011;1458;49.728;9.228;2023-04-28T04:25:14;0.30;;;0.30;;
2896;SDS011;1458;49.728;9.228;2023-04-28T04:27:45;0.30;;;0.30;;
2896;SDS011;1458;49.728;9.228;2023-04-28T04:30:13;0.30;;;0.30;;
2896;SDS011;1458;49.728;9.228;2023-04-28T04:32:40;0.30;;;0.30;;
2896;SDS011;1458;49.728;9.228;2023-04-28T04:35:09;0.30;;;0.30;;
2896;SDS011;1458;49.728;9.228;2023-04-28T04:37:37;0.30;;;0.30;;
2896;SDS011;1458;49.728;9.228;2023-04-28T04:40:05;0.30;;;0.30;;
2896;SDS011;1458;49.728;9.228;2023-04-28T04:42:40;0.30;;;0.30;;
2896;SDS011;1458;49.728;9.228;2023-04-28T04:45:15;0.30;;;0.30;;
2896;SDS011;1458;49.728;9.228;2023-04-28T04:47:43;0.30;;;0.30;;
2896;SDS011;1458;49.728;9.228;2023-04-28T04:50:12;0.30;;;0.30;;
2896;SDS011;1458;49.728;9.228;2023-04-28T04:52:39;0.30;;;0.30;;
2896;SDS011;1458;49.728;9.228;2023-04-28T04:55:07;0.30;;;0.30;;
2896;SDS011;1458;49.728;9.228;2023-04-28T04:57:38;0.40;;;0.40;;
2896;SDS011;1458;49.728;9.228;2023-04-28T05:00:06;0.30;;;0.30;;
2896;SDS011;1458;49.728;9.228;2023-04-28T05:02:35;0.30;;;0.30;;
2896;SDS011;1458;49.728;9.228;2023-04-28T05:05:04;0.30;;;0.30;;
2896;SDS011;1458;49.728;9.228;2023-04-28T05:07:34;0.30;;;0.30;;
2896;SDS011;1458;49.728;9.228;2023-04-28T05:10:01;0.30;;;0.30;;
2896;SDS011;1458;49.728;9.228;2023-04-28T05:12:31;0.30;;;0.30;;
2896;SDS011;1458;49.728;9.228;2023-04-28T05:14:58;0.30;;;0.30;;
2896;SDS011;1458;49.728;9.228;2023-04-28T05:17:26;0.30;;;0.30;;
2896;SDS011;1458;49.728;9.228;2023-04-28T05:19:54;0.30;;;0.30;;
2896;SDS011;1458;49.728;9.228;2023-04-28T05:22:22;0.30;;;0.30;;
2896;SDS011;1458;49.728;9.228;2023-04-28T05:24:51;0.30;;;0.30;;
2896;SDS011;1458;49.728;9.228;2023-04-28T05:27:19;0.30;;;0.30;;
2896;SDS011;1458;49.728;9.228;2023-04-28T05:29:47;0.30;;;0.30;;
2896;SDS011;1458;49.728;9.228;2023-04-28T05:32:15;0.30;;;0.30;;
2896;SDS011;1458;49.728;9.228;2023-04-28T05:34:43;0.30;;;0.30;;
2896;SDS011;1458;49.728;9.228;2023-04-28T05:37:10;0.30;;;0.30;;
2896;SDS011;1458;49.728;9.228;2023-04-28T05:39:39;0.30;;;0.30;;
2896;SDS011;1458;49.728;9.228;2023-04-28T05:42:08;0.30;;;0.30;;
2896;SDS011;1458;49.728;9.228;2023-04-28T05:44:36;0.30;;;0.30;;
2896;SDS011;1458;49.728;9.228;2023-04-28T05:47:04;0.30;;;0.30;;
2896;SDS011;1458;49.728;9.228;2023-04-28T05:49:31;0.30;;;0.30;;
2896;SDS011;1458;49.728;9.228;2023-04-28T05:51:59;0.37;;;0.37;;
2896;SDS011;1458;49.728;9.228;2023-04-28T05:54:26;0.40;;;0.40;;
2896;SDS011;1458;49.728;9.228;2023-04-28T05:56:54;0.30;;;0.30;;
2896;SDS011;1458;49.728;9.228;2023-04-28T05:59:24;0.30;;;0.30;;
2896;SDS011;1458;49.728;9.228;2023-04-28T06:01:53;0.30;;;0.30;;
2896;SDS011;1458;49.728;9.228;2023-04-28T06:04:20;0.30;;;0.30;;
2896;SDS011;1458;49.728;9.228;2023-04-28T06:06:48;0.30;;;0.30;;
2896;SDS011;1458;49.728;9.228;2023-04-28T06:09:16;0.30;;;0.30;;
2896;SDS011;1458;49.728;9.228;2023-04-28T06:11:44;0.30;;;0.30;;
2896;SDS011;1458;49.728;9.228;2023-04-28T06:14:11;0.30;;;0.30;;
2896;SDS011;1458;49.728;9.228;2023-04-28T06:16:42;0.40;;;0.40;;
2896;SDS011;1458;49.728;9.228;2023-04-28T06:19:09;0.30;;;0.30;;
2896;SDS011;1458;49.728;9.228;2023-04-28T06:21:39;0.30;;;0.30;;
2896;SDS011;1458;49.728;9.228;2023-04-28T06:24:07;0.40;;;0.40;;
2896;SDS011;1458;49.728;9.228;2023-04-28T06:26:35;0.30;;;0.30;;
2896;SDS011;1458;49.728;9.228;2023-04-28T06:29:02;0.30;;;0.30;;
2896;SDS011;1458;49.728;9.228;2023-04-28T06:31:30;0.30;;;0.30;;
2896;SDS011;1458;49.728;9.228;2023-04-28T06:33:58;0.30;;;0.30;;
2896;SDS011;1458;49.728;9.228;2023-04-28T06:36:26;0.30;;;0.30;;
2896;SDS011;1458;49.728;9.228;2023-04-28T06:38:54;0.30;;;0.30;;
2896;SDS011;1458;49.728;9.228;2023-04-28T06:41:21;0.30;;;0.30;;
2896;SDS011;1458;49.728;9.228;2023-04-28T06:43:50;0.30;;;0.30;;
2896;SDS011;1458;49.728;9.228;2023-04-28T06:46:26;0.30;;;0.30;;
2896;SDS011;1458;49.728;9.228;2023-04-28T06:48:54;0.33;;;0.33;;
2896;SDS011;1458;49.728;9.228;2023-04-28T06:51:23;0.30;;;0.30;;
2896;SDS011;1458;49.728;9.228;2023-04-28T06:53:51;0.30;;;0.30;;
2896;SDS011;1458;49.728;9.228;2023-04-28T06:56:18;0.40;;;0.40;;
2896;SDS011;1458;49.728;9.228;2023-04-28T06:58:46;0.30;;;0.30;;
2896;SDS011;1458;49.728;9.228;2023-04-28T07:01:14;0.30;;;0.30;;
2896;SDS011;1458;49.728;9.228;2023-04-28T07:03:41;0.30;;;0.30;;
2896;SDS011;1458;49.728;9.228;2023-04-28T07:06:09;0.30;;;0.30;;
2896;SDS011;1458;49.728;9.228;2023-04-28T07:08:38;0.30;;;0.30;;
2896;SDS011;1458;49.728;9.228;2023-04-28T07:11:07;0.30;;;0.30;;
2896;SDS011;1458;49.728;9.228;2023-04-28T07:13:35;0.30;;;0.30;;
2896;SDS011;1458;49.728;9.228;2023-04-28T07:16:03;0.30;;;0.30;;
2896;SDS011;1458;49.728;9.228;2023-04-28T07:18:30;0.30;;;0.30;;
2896;SDS011;1458;49.728;9.228;2023-04-28T07:20:58;0.20;;;0.20;;
2896;SDS011;1458;49.728;9.228;2023-04-28T07:23:25;0.20;;;0.20;;
2896;SDS011;1458;49.728;9.228;2023-04-28T07:25:55;0.20;;;0.20;;
2896;SDS011;1458;49.728;9.228;2023-04-28T07:28:23;0.30;;;0.30;;
2896;SDS011;1458;49.728;9.228;2023-04-28T07:30:51;0.20;;;0.20;;
2896;SDS011;1458;49.728;9.228;2023-04-28T07:33:18;0.20;;;0.20;;
2896;SDS011;1458;49.728;9.228;2023-04-28T07:35:46;0.20;;;0.20;;
2896;SDS011;1458;49.728;9.228;2023-04-28T07:38:13;0.20;;;0.20;;
2896;SDS011;1458;49.728;9.228;2023-04-28T07:40:41;0.30;;;0.30;;
2896;SDS011;1458;49.728;9.228;2023-04-28T07:43:10;0.20;;;0.20;;
2896;SDS011;1458;49.728;9.228;2023-04-28T07:45:38;0.20;;;0.20;;
2896;SDS011;1458;49.728;9.228;2023-04-28T07:48:06;0.20;;;0.20;;
2896;SDS011;1458;49.728;9.228;2023-04-28T07:50:34;0.20;;;0.20;;
2896;SDS011;1458;49.728;9.228;2023-04-28T07:53:01;0.20;;;0.20;;
2896;SDS011;1458;49.728;9.228;2023-04-28T07:55:29;0.30;;;0.30;;
2896;SDS011;1458;49.728;9.228;2023-04-28T07:57:56;0.20;;;0.20;;
2896;SDS011;1458;49.728;9.228;2023-04-28T08:00:25;0.20;;;0.20;;
2896;SDS011;1458;49.728;9.228;2023-04-28T08:02:53;0.20;;;0.20;;
2896;SDS011;1458;49.728;9.228;2023-04-28T08:05:22;0.30;;;0.30;;
2896;SDS011;1458;49.728;9.228;2023-04-28T08:07:50;0.20;;;0.20;;
2896;SDS011;1458;49.728;9.228;2023-04-28T08:10:17;0.20;;;0.20;;
2896;SDS011;1458;49.728;9.228;2023-04-28T08:12:45;0.20;;;0.20;;
2896;SDS011;1458;49.728;9.228;2023-04-28T08:15:13;0.20;;;0.20;;
2896;SDS011;1458;49.728;9.228;2023-04-28T08:17:41;0.20;;;0.20;;
2896;SDS011;1458;49.728;9.228;2023-04-28T08:20:09;0.20;;;0.20;;
2896;SDS011;1458;49.728;9.228;2023-04-28T08:22:39;0.20;;;0.20;;
2896;SDS011;1458;49.728;9.228;2023-04-28T08:25:07;0.20;;;0.20;;
2896;SDS011;1458;49.728;9.228;2023-04-28T08:27:35;0.20;;;0.20;;
2896;SDS011;1458;49.728;9.228;2023-04-28T08:30:04;0.20;;;0.20;;
2896;SDS011;1458;49.728;9.228;2023-04-28T08:32:33;0.20;;;0.20;;
2896;SDS011;1458;49.728;9.228;2023-04-28T08:35:02;0.30;;;0.30;;
2896;SDS011;1458;49.728;9.228;2023-04-28T08:37:31;0.20;;;0.20;;
2896;SDS011;1458;49.728;9.228;2023-04-28T08:39:58;0.20;;;0.20;;
2896;SDS011;1458;49.728;9.228;2023-04-28T08:42:29;0.30;;;0.30;;
2896;SDS011;1458;49.728;9.228;2023-04-28T08:44:57;0.30;;;0.30;;
2896;SDS011;1458;49.728;9.228;2023-04-28T08:47:26;0.30;;;0.30;;
2896;SDS011;1458;49.728;9.228;2023-04-28T08:50:02;0.20;;;0.20;;
2896;SDS011;1458;49.728;9.228;2023-04-28T08:52:32;0.30;;;0.30;;
2896;SDS011;1458;49.728;9.228;2023-04-28T08:55:04;0.30;;;0.30;;
2896;SDS011;1458;49.728;9.228;2023-04-28T08:57:34;0.30;;;0.30;;
2896;SDS011;1458;49.728;9.228;2023-04-28T09:00:08;0.30;;;0.30;;
2896;SDS011;1458;49.728;9.228;2023-04-28T09:02:36;0.20;;;0.20;;
2896;SDS011;1458;49.728;9.228;2023-04-28T09:05:07;0.40;;;0.40;;
2896;SDS011;1458;49.728;9.228;2023-04-28T09:07:36;0.30;;;0.30;;
2896;SDS011;1458;49.728;9.228;2023-04-28T09:10:14;0.20;;;0.20;;
2896;SDS011;1458;49.728;9.228;2023-04-28T09:12:44;0.20;;;0.20;;
2896;SDS011;1458;49.728;9.228;2023-04-28T09:17:57;0.20;;;0.20;;
2896;SDS011;1458;49.728;9.228;2023-04-28T09:20:27;0.20;;;0.20;;
2896;SDS011;1458;49.728;9.228;2023-04-28T09:22:56;0.30;;;0.30;;
2896;SDS011;1458;49.728;9.228;2023-04-28T09:25:40;0.20;;;0.20;;
2896;SDS011;1458;49.728;9.228;2023-04-28T09:28:22;0.20;;;0.20;;
2896;SDS011;1458;49.728;9.228;2023-04-28T09:30:49;0.20;;;0.20;;
2896;SDS011;1458;49.728;9.228;2023-04-28T09:33:17;0.20;;;0.20;;
2896;SDS011;1458;49.728;9.228;2023-04-28T09:35:47;0.20;;;0.20;;
2896;SDS011;1458;49.728;9.228;2023-04-28T09:38:15;0.20;;;0.20;;
2896;SDS011;1458;49.728;9.228;2023-04-28T09:40:51;0.20;;;0.20;;
2896;SDS011;1458;49.728;9.228;2023-04-28T09:43:22;0.10;;;0.10;;
2896;SDS011;1458;49.728;9.228;2023-04-28T09:45:51;0.10;;;0.10;;
2896;SDS011;1458;49.728;9.228;2023-04-28T09:48:25;0.20;;;0.20;;
2896;SDS011;1458;49.728;9.228;2023-04-28T09:50:56;0.10;;;0.10;;
2896;SDS011;1458;49.728;9.228;2023-04-28T09:53:25;0.30;;;0.30;;
2896;SDS011;1458;49.728;9.228;2023-04-28T09:55:53;0.20;;;0.20;;
2896;SDS011;1458;49.728;9.228;2023-04-28T09:58:22;0.13;;;0.13;;
2896;SDS011;1458;49.728;9.228;2023-04-28T10:00:52;0.20;;;0.20;;
2896;SDS011;1458;49.728;9.228;2023-04-28T10:03:21;0.20;;;0.20;;
2896;SDS011;1458;49.728;9.228;2023-04-28T10:05:52;0.20;;;0.20;;
2896;SDS011;1458;49.728;9.228;2023-04-28T10:08:22;0.20;;;0.20;;
2896;SDS011;1458;49.728;9.228;2023-04-28T10:10:50;0.20;;;0.20;;
2896;SDS011;1458;49.728;9.228;2023-04-28T10:13:19;0.20;;;0.20;;
2896;SDS011;1458;49.728;9.228;2023-04-28T10:15:48;0.20;;;0.20;;
2896;SDS011;1458;49.728;9.228;2023-04-28T10:18:18;0.20;;;0.20;;
2896;SDS011;1458;49.728;9.228;2023-04-28T10:20:49;0.20;;;0.20;;
2896;SDS011;1458;49.728;9.228;2023-04-28T10:23:33;0.20;;;0.20;;
2896;SDS011;1458;49.728;9.228;2023-04-28T10:26:17;0.20;;;0.20;;
2896;SDS011;1458;49.728;9.228;2023-04-28T10:28:46;0.20;;;0.20;;
2896;SDS011;1458;49.728;9.228;2023-04-28T10:31:15;0.20;;;0.20;;
2896;SDS011;1458;49.728;9.228;2023-04-28T10:33:45;0.20;;;0.20;;
2896;SDS011;1458;49.728;9.228;2023-04-28T10:39:18;0.20;;;0.20;;
2896;SDS011;1458;49.728;9.228;2023-04-28T10:41:45;0.30;;;0.30;;
2896;SDS011;1458;49.728;9.228;2023-04-28T10:47:09;0.20;;;0.20;;
2896;SDS011;1458;49.728;9.228;2023-04-28T10:52:47;0.20;;;0.20;;
2896;SDS011;1458;49.728;9.228;2023-04-28T10:55:30;0.30;;;0.30;;
2896;SDS011;1458;49.728;9.228;2023-04-28T11:03:52;0.20;;;0.20;;
2896;SDS011;1458;49.728;9.228;2023-04-28T11:06:27;0.20;;;0.20;;
2896;SDS011;1458;49.728;9.228;2023-04-28T11:08:57;0.10;;;0.10;;
2896;SDS011;1458;49.728;9.228;2023-04-28T11:11:28;0.20;;;0.20;;
2896;SDS011;1458;49.728;9.228;2023-04-28T11:16:59;0.20;;;0.20;;
2896;SDS011;1458;49.728;9.228;2023-04-28T11:19:28;0.20;;;0.20;;
2896;SDS011;1458;49.728;9.228;2023-04-28T11:21:57;0.20;;;0.20;;
2896;SDS011;1458;49.728;9.228;2023-04-28T11:24:29;0.20;;;0.20;;
2896;SDS011;1458;49.728;9.228;2023-04-28T11:26:58;0.20;;;0.20;;
2896;SDS011;1458;49.728;9.228;2023-04-28T11:29:30;0.20;;;0.20;;
2896;SDS011;1458;49.728;9.228;2023-04-28T11:31:59;0.10;;;0.10;;
2896;SDS011;1458;49.728;9.228;2023-04-28T11:34:27;0.20;;;0.20;;
2896;SDS011;1458;49.728;9.228;2023-04-28T11:36:55;0.20;;;0.20;;
2896;SDS011;1458;49.728;9.228;2023-04-28T11:39:26;0.20;;;0.20;;
2896;SDS011;1458;49.728;9.228;2023-04-28T11:41:55;0.20;;;0.20;;
2896;SDS011;1458;49.728;9.228;2023-04-28T11:44:27;0.17;;;0.17;;
2896;SDS011;1458;49.728;9.228;2023-04-28T11:46:56;0.20;;;0.20;;
2896;SDS011;1458;49.728;9.228;2023-04-28T11:49:25;0.20;;;0.20;;
2896;SDS011;1458;49.728;9.228;2023-04-28T11:51:54;0.20;;;0.20;;
2896;SDS011;1458;49.728;9.228;2023-04-28T11:54:24;0.10;;;0.10;;
2896;SDS011;1458;49.728;9.228;2023-04-28T11:56:54;0.20;;;0.20;;
2896;SDS011;1458;49.728;9.228;2023-04-28T11:59:27;0.20;;;0.20;;
2896;SDS011;1458;49.728;9.228;2023-04-28T12:01:57;0.20;;;0.20;;
2896;SDS011;1458;49.728;9.228;2023-04-28T12:04:27;0.20;;;0.20;;
2896;SDS011;1458;49.728;9.228;2023-04-28T12:06:58;0.20;;;0.20;;
2896;SDS011;1458;49.728;9.228;2023-04-28T12:09:30;0.20;;;0.20;;
2896;SDS011;1458;49.728;9.228;2023-04-28T12:11:59;0.20;;;0.20;;
2896;SDS011;1458;49.728;9.228;2023-04-28T12:14:30;0.20;;;0.20;;
2896;SDS011;1458;49.728;9.228;2023-04-28T12:17:00;0.20;;;0.20;;
2896;SDS011;1458;49.728;9.228;2023-04-28T12:19:28;0.20;;;0.20;;
2896;SDS011;1458;49.728;9.228;2023-04-28T12:21:59;0.20;;;0.20;;
2896;SDS011;1458;49.728;9.228;2023-04-28T12:24:30;0.20;;;0.20;;
2896;SDS011;1458;49.728;9.228;2023-04-28T12:27:15;0.20;;;0.20;;
2896;SDS011;1458;49.728;9.228;2023-04-28T12:29:47;0.20;;;0.20;;
2896;SDS011;1458;49.728;9.228;2023-04-28T12:32:15;0.20;;;0.20;;
2896;SDS011;1458;49.728;9.228;2023-04-28T12:34:44;0.20;;;0.20;;
2896;SDS011;1458;49.728;9.228;2023-04-28T12:37:14;0.20;;;0.20;;
2896;SDS011;1458;49.728;9.228;2023-04-28T12:39:42;0.10;;;0.10;;
2896;SDS011;1458;49.728;9.228;2023-04-28T12:42:09;0.27;;;0.27;;
2896;SDS011;1458;49.728;9.228;2023-04-28T12:44:37;0.20;;;0.20;;
2896;SDS011;1458;49.728;9.228;2023-04-28T12:47:06;0.10;;;0.10;;
2896;SDS011;1458;49.728;9.228;2023-04-28T12:49:36;0.20;;;0.20;;
2896;SDS011;1458;49.728;9.228;2023-04-28T12:52:04;0.30;;;0.30;;
2896;SDS011;1458;49.728;9.228;2023-04-28T12:54:32;0.20;;;0.20;;
2896;SDS011;1458;49.728;9.228;2023-04-28T12:56:59;0.20;;;0.20;;
2896;SDS011;1458;49.728;9.228;2023-04-28T12:59:27;0.20;;;0.20;;
2896;SDS011;1458;49.728;9.228;2023-04-28T13:01:56;0.20;;;0.20;;
2896;SDS011;1458;49.728;9.228;2023-04-28T13:04:25;0.10;;;0.10;;
2896;SDS011;1458;49.728;9.228;2023-04-28T13:06:53;0.10;;;0.10;;
2896;SDS011;1458;49.728;9.228;2023-04-28T13:09:23;0.20;;;0.20;;
2896;SDS011;1458;49.728;9.228;2023-04-28T13:11:51;0.20;;;0.20;;
2896;SDS011;1458;49.728;9.228;2023-04-28T13:14:19;0.20;;;0.20;;
2896;SDS011;1458;49.728;9.228;2023-04-28T13:16:47;0.10;;;0.10;;
2896;SDS011;1458;49.728;9.228;2023-04-28T13:19:16;0.20;;;0.20;;
2896;SDS011;1458;49.728;9.228;2023-04-28T13:21:45;0.20;;;0.20;;
2896;SDS011;1458;49.728;9.228;2023-04-28T13:24:12;0.10;;;0.10;;
2896;SDS011;1458;49.728;9.228;2023-04-28T13:26:40;0.10;;;0.10;;
2896;SDS011;1458;49.728;9.228;2023-04-28T13:29:09;0.20;;;0.20;;
2896;SDS011;1458;49.728;9.228;2023-04-28T13:31:37;0.10;;;0.10;;
2896;SDS011;1458;49.728;9.228;2023-04-28T13:34:05;0.10;;;0.10;;
2896;SDS011;1458;49.728;9.228;2023-04-28T13:36:33;0.10;;;0.10;;
2896;SDS011;1458;49.728;9.228;2023-04-28T13:39:04;0.10;;;0.10;;
2896;SDS011;1458;49.728;9.228;2023-04-28T13:41:35;0.10;;;0.10;;
2896;SDS011;1458;49.728;9.228;2023-04-28T13:44:03;0.20;;;0.20;;
2896;SDS011;1458;49.728;9.228;2023-04-28T13:46:30;0.10;;;0.10;;
2896;SDS011;1458;49.728;9.228;2023-04-28T13:48:58;0.20;;;0.20;;
2896;SDS011;1458;49.728;9.228;2023-04-28T13:51:25;0.10;;;0.10;;
2896;SDS011;1458;49.728;9.228;2023-04-28T13:53:53;0.10;;;0.10;;
2896;SDS011;1458;49.728;9.228;2023-04-28T13:56:23;0.10;;;0.10;;
2896;SDS011;1458;49.728;9.228;2023-04-28T13:58:51;0.20;;;0.20;;
2896;SDS011;1458;49.728;9.228;2023-04-28T14:01:18;0.10;;;0.10;;
2896;SDS011;1458;49.728;9.228;2023-04-28T14:03:46;0.20;;;0.20;;
2896;SDS011;1458;49.728;9.228;2023-04-28T14:06:13;0.13;;;0.13;;
2896;SDS011;1458;49.728;9.228;2023-04-28T14:08:41;0.20;;;0.20;;
2896;SDS011;1458;49.728;9.228;2023-04-28T14:11:08;0.10;;;0.10;;
2896;SDS011;1458;49.728;9.228;2023-04-28T14:13:37;0.20;;;0.20;;
2896;SDS011;1458;49.728;9.228;2023-04-28T14:16:05;0.20;;;0.20;;
2896;SDS011;1458;49.728;9.228;2023-04-28T14:18:33;0.17;;;0.17;;
2896;SDS011;1458;49.728;9.228;2023-04-28T14:21:01;0.20;;;0.20;;
2896;SDS011;1458;49.728;9.228;2023-04-28T14:23:32;0.20;;;0.20;;
2896;SDS011;1458;49.728;9.228;2023-04-28T14:26:00;0.20;;;0.20;;
2896;SDS011;1458;49.728;9.228;2023-04-28T14:28:28;0.20;;;0.20;;
2896;SDS011;1458;49.728;9.228;2023-04-28T14:30:57;0.37;;;0.37;;
2896;SDS011;1458;49.728;9.228;2023-04-28T14:33:30;0.20;;;0.20;;
2896;SDS011;1458;49.728;9.228;2023-04-28T14:35:57;0.20;;;0.20;;
2896;SDS011;1458;49.728;9.228;2023-04-28T14:38:26;0.20;;;0.20;;
2896;SDS011;1458;49.728;9.228;2023-04-28T14:40:54;0.20;;;0.20;;
2896;SDS011;1458;49.728;9.228;2023-04-28T14:43:22;0.20;;;0.20;;
2896;SDS011;1458;49.728;9.228;2023-04-28T14:45:50;0.10;;;0.10;;
2896;SDS011;1458;49.728;9.228;2023-04-28T14:48:19;0.20;;;0.20;;
2896;SDS011;1458;49.728;9.228;2023-04-28T14:50:47;0.20;;;0.20;;
2896;SDS011;1458;49.728;9.228;2023-04-28T14:53:15;0.10;;;0.10;;
2896;SDS011;1458;49.728;9.228;2023-04-28T14:55:43;0.20;;;0.20;;
2896;SDS011;1458;49.728;9.228;2023-04-28T14:58:10;0.10;;;0.10;;
2896;SDS011;1458;49.728;9.228;2023-04-28T15:00:37;0.17;;;0.17;;
2896;SDS011;1458;49.728;9.228;2023-04-28T15:03:05;0.10;;;0.10;;
2896;SDS011;1458;49.728;9.228;2023-04-28T15:05:34;0.10;;;0.10;;
2896;SDS011;1458;49.728;9.228;2023-04-28T15:08:02;0.10;;;0.10;;
2896;SDS011;1458;49.728;9.228;2023-04-28T15:10:31;0.10;;;0.10;;
2896;SDS011;1458;49.728;9.228;2023-04-28T15:13:05;0.20;;;0.20;;
2896;SDS011;1458;49.728;9.228;2023-04-28T15:15:33;0.10;;;0.10;;
2896;SDS011;1458;49.728;9.228;2023-04-28T15:18:00;0.10;;;0.10;;
2896;SDS011;1458;49.728;9.228;2023-04-28T15:20:28;0.20;;;0.20;;
2896;SDS011;1458;49.728;9.228;2023-04-28T15:22:58;0.13;;;0.13;;
2896;SDS011;1458;49.728;9.228;2023-04-28T15:25:26;0.20;;;0.20;;
2896;SDS011;1458;49.728;9.228;2023-04-28T15:27:53;0.20;;;0.20;;
2896;SDS011;1458;49.728;9.228;2023-04-28T15:30:21;0.20;;;0.20;;
2896;SDS011;1458;49.728;9.228;2023-04-28T15:32:48;0.20;;;0.20;;
2896;SDS011;1458;49.728;9.228;2023-04-28T15:35:17;0.10;;;0.10;;
2896;SDS011;1458;49.728;9.228;2023-04-28T15:37:46;0.20;;;0.20;;
2896;SDS011;1458;49.728;9.228;2023-04-28T15:40:17;0.20;;;0.20;;
2896;SDS011;1458;49.728;9.228;2023-04-28T15:42:46;0.10;;;0.10;;
2896;SDS011;1458;49.728;9.228;2023-04-28T15:45:15;0.10;;;0.10;;
2896;SDS011;1458;49.728;9.228;2023-04-28T15:47:45;0.10;;;0.10;;